createdAt,value
2017-11-22T00:00:15.670Z,8.70
2017-11-22T00:02:49.037Z,8.37
2017-11-22T00:05:21.831Z,7.70
2017-11-22T00:07:55.871Z,7.90
2017-11-22T00:10:28.467Z,7.67
2017-11-22T00:13:00.954Z,7.63
2017-11-22T00:15:34.967Z,7.03
2017-11-22T00:18:07.639Z,8.23
2017-11-22T00:20:40.899Z,8.43
2017-11-22T00:23:13.314Z,8.20
2017-11-22T00:25:45.700Z,6.40
2017-11-22T00:28:18.132Z,7.63
2017-11-22T00:30:52.100Z,8.70
2017-11-22T00:33:28.243Z,9.00
2017-11-22T00:36:03.839Z,7.97
2017-11-22T00:38:37.380Z,7.33
2017-11-22T00:41:10.006Z,8.13
2017-11-22T00:43:42.470Z,7.73
2017-11-22T00:46:14.848Z,8.47
2017-11-22T00:48:48.867Z,7.47
2017-11-22T00:51:21.391Z,6.83
2017-11-22T00:53:54.772Z,6.10
2017-11-22T00:56:27.449Z,6.23
2017-11-22T00:59:00.780Z,6.37
2017-11-22T01:01:33.987Z,5.53
2017-11-22T01:04:06.980Z,6.97
2017-11-22T01:06:40.228Z,6.77
2017-11-22T01:09:12.688Z,6.17
2017-11-22T01:11:45.259Z,6.57
2017-11-22T01:14:18.682Z,6.50
2017-11-22T01:16:51.968Z,7.40
2017-11-22T01:19:25.159Z,6.70
2017-11-22T01:21:57.849Z,8.03
2017-11-22T01:24:30.991Z,6.23
2017-11-22T01:27:03.436Z,7.40
2017-11-22T01:29:35.900Z,6.80
2017-11-22T01:32:09.009Z,7.93
2017-11-22T01:34:42.376Z,7.27
2017-11-22T01:37:15.636Z,8.03
2017-11-22T01:39:49.134Z,7.40
2017-11-22T01:42:22.024Z,8.47
2017-11-22T01:44:55.454Z,7.77
2017-11-22T01:47:28.716Z,7.80
2017-11-22T01:50:01.339Z,8.03
2017-11-22T01:52:33.983Z,8.90
2017-11-22T01:55:06.508Z,7.60
2017-11-22T01:57:39.705Z,7.23
2017-11-22T02:00:12.104Z,6.57
2017-11-22T02:02:46.116Z,6.97
2017-11-22T02:05:19.590Z,7.47
2017-11-22T02:07:52.079Z,6.47
2017-11-22T02:10:25.243Z,6.93
2017-11-22T02:12:58.891Z,7.40
2017-11-22T02:15:31.776Z,8.30
2017-11-22T02:18:04.193Z,8.53
2017-11-22T02:20:36.924Z,9.20
2017-11-22T02:23:10.149Z,8.50
2017-11-22T02:25:43.461Z,7.50
2017-11-22T02:28:15.987Z,7.20
2017-11-22T02:30:49.114Z,7.80
2017-11-22T02:33:21.694Z,7.70
2017-11-22T02:35:55.663Z,7.67
2017-11-22T02:38:29.547Z,8.53
2017-11-22T02:41:02.077Z,7.67
2017-11-22T02:43:36.116Z,7.63
2017-11-22T02:46:09.598Z,7.63
2017-11-22T02:48:42.176Z,7.87
2017-11-22T02:51:14.519Z,8.33
2017-11-22T02:53:47.677Z,8.63
2017-11-22T02:56:20.360Z,8.13
2017-11-22T02:58:54.419Z,9.43
2017-11-22T03:01:27.126Z,9.23
2017-11-22T03:04:00.422Z,8.97
2017-11-22T03:06:32.977Z,10.33
2017-11-22T03:09:06.179Z,9.03
2017-11-22T03:11:38.592Z,8.30
2017-11-22T03:14:11.891Z,8.70
2017-11-22T03:16:44.988Z,9.50
2017-11-22T03:19:17.563Z,9.63
2017-11-22T03:21:49.929Z,9.43
2017-11-22T03:24:23.289Z,9.97
2017-11-22T03:26:56.986Z,8.80
2017-11-22T03:29:30.751Z,7.90
2017-11-22T03:32:03.396Z,8.67
2017-11-22T03:34:36.045Z,7.63
2017-11-22T03:37:09.417Z,7.43
2017-11-22T03:39:42.630Z,8.80
2017-11-22T03:42:14.992Z,8.87
2017-11-22T03:44:48.263Z,9.27
2017-11-22T03:47:20.939Z,8.20
2017-11-22T03:50:00.332Z,9.67
2017-11-22T03:52:38.881Z,9.63
2017-11-22T03:55:12.917Z,10.07
2017-11-22T03:57:48.023Z,9.63
2017-11-22T04:00:21.047Z,11.00
2017-11-22T04:02:59.488Z,10.47
2017-11-22T04:05:31.904Z,11.90
2017-11-22T04:08:07.172Z,12.63
2017-11-22T04:10:43.598Z,13.17
2017-11-22T04:13:20.096Z,13.37
2017-11-22T04:15:56.283Z,13.57
2017-11-22T04:18:31.386Z,13.23
2017-11-22T04:21:04.562Z,12.27
2017-11-22T04:23:37.069Z,13.50
2017-11-22T04:26:09.499Z,14.07
2017-11-22T04:28:43.509Z,14.07
2017-11-22T04:31:16.465Z,14.20
2017-11-22T04:33:48.904Z,15.17
2017-11-22T04:36:21.484Z,14.63
2017-11-22T04:38:54.340Z,13.23
2017-11-22T04:41:26.739Z,12.73
2017-11-22T04:44:00.782Z,13.10
2017-11-22T04:46:34.041Z,12.43
2017-11-22T04:49:07.482Z,14.93
2017-11-22T04:51:40.016Z,12.63
2017-11-22T04:54:12.444Z,13.33
2017-11-22T04:56:46.527Z,11.70
2017-11-22T04:59:19.121Z,10.77
2017-11-22T05:01:53.151Z,12.70
2017-11-22T05:04:26.626Z,11.40
2017-11-22T05:06:58.987Z,13.27
2017-11-22T05:09:31.531Z,12.17
2017-11-22T05:12:04.827Z,11.20
2017-11-22T05:14:37.267Z,12.70
2017-11-22T05:17:09.535Z,12.47
2017-11-22T05:19:42.767Z,13.00
2017-11-22T05:22:15.691Z,13.23
2017-11-22T05:24:48.104Z,13.17
2017-11-22T05:27:21.225Z,11.87
2017-11-22T05:29:54.522Z,11.23
2017-11-22T05:32:28.079Z,12.10
2017-11-22T05:35:00.795Z,11.57
2017-11-22T05:37:34.782Z,11.77
2017-11-22T05:40:07.591Z,14.03
2017-11-22T05:42:39.986Z,13.27
2017-11-22T05:45:12.471Z,14.17
2017-11-22T05:47:45.112Z,13.03
2017-11-22T05:52:55.491Z,13.43
2017-11-22T05:55:30.419Z,14.50
2017-11-22T05:58:03.603Z,14.67
2017-11-22T06:00:42.192Z,15.83
2017-11-22T06:03:14.927Z,13.80
2017-11-22T06:05:48.155Z,14.77
2017-11-22T06:08:20.854Z,14.67
2017-11-22T06:10:53.847Z,14.70
2017-11-22T06:13:26.217Z,14.77
2017-11-22T06:15:58.812Z,15.33
2017-11-22T06:18:31.579Z,15.60
2017-11-22T06:21:04.970Z,13.73
2017-11-22T06:23:37.645Z,14.13
2017-11-22T06:26:12.726Z,14.33
2017-11-22T06:28:45.217Z,14.63
2017-11-22T06:31:17.741Z,15.30
2017-11-22T06:33:50.146Z,13.73
2017-11-22T06:36:23.518Z,15.67
2017-11-22T06:38:56.824Z,16.00
2017-11-22T06:41:29.411Z,14.67
2017-11-22T06:44:02.707Z,14.23
2017-11-22T06:46:35.083Z,14.40
2017-11-22T06:49:07.701Z,14.03
2017-11-22T06:51:41.745Z,13.93
2017-11-22T06:54:14.837Z,13.30
2017-11-22T06:56:47.459Z,12.67
2017-11-22T06:59:20.712Z,13.70
2017-11-22T07:01:58.135Z,14.70
2017-11-22T07:04:30.957Z,13.10
2017-11-22T07:07:04.355Z,13.07
2017-11-22T07:09:37.826Z,13.73
2017-11-22T07:12:11.344Z,12.20
2017-11-22T07:14:44.147Z,13.37
2017-11-22T07:17:23.796Z,12.33
2017-11-22T07:19:57.758Z,14.80
2017-11-22T07:22:30.369Z,11.57
2017-11-22T07:25:03.046Z,14.60
2017-11-22T07:27:36.976Z,13.73
2017-11-22T07:30:10.115Z,13.20
2017-11-22T07:32:43.353Z,11.67
2017-11-22T07:35:16.736Z,13.37
2017-11-22T07:37:50.048Z,12.77
2017-11-22T07:40:24.307Z,12.97
2017-11-22T07:42:57.420Z,13.90
2017-11-22T07:45:31.181Z,13.97
2017-11-22T07:48:09.984Z,13.93
2017-11-22T07:50:45.604Z,13.50
2017-11-22T07:53:18.144Z,13.33
2017-11-22T07:55:50.946Z,13.13
2017-11-22T07:58:24.934Z,12.47
2017-11-22T08:00:58.389Z,14.87
2017-11-22T08:03:34.004Z,13.20
2017-11-22T08:06:06.435Z,12.63
2017-11-22T08:08:39.720Z,12.57
2017-11-22T08:11:13.536Z,12.40
2017-11-22T08:13:46.776Z,13.87
2017-11-22T08:16:19.928Z,13.23
2017-11-22T08:18:52.488Z,13.20
2017-11-22T08:21:24.936Z,13.77
2017-11-22T08:23:58.200Z,12.30
2017-11-22T08:26:30.556Z,14.00
2017-11-22T08:29:03.889Z,13.07
2017-11-22T08:31:37.139Z,14.07
2017-11-22T08:34:10.499Z,14.40
2017-11-22T08:36:43.078Z,13.53
2017-11-22T08:39:16.391Z,13.67
2017-11-22T08:41:50.040Z,12.40
2017-11-22T08:44:23.170Z,12.80
2017-11-22T08:46:55.648Z,13.67
2017-11-22T08:49:28.893Z,12.90
2017-11-22T08:52:01.227Z,13.53
2017-11-22T08:54:40.428Z,13.83
2017-11-22T08:57:19.126Z,12.67
2017-11-22T08:59:58.651Z,10.90
2017-11-22T09:02:31.733Z,13.07
2017-11-22T09:05:04.270Z,12.00
2017-11-22T09:07:37.586Z,12.77
2017-11-22T09:10:09.946Z,12.30
2017-11-22T09:15:49.277Z,12.23
2017-11-22T09:18:27.975Z,10.97
2017-11-22T09:21:01.211Z,11.77
2017-11-22T09:23:33.977Z,12.30
2017-11-22T09:26:07.556Z,10.93
2017-11-22T09:28:40.207Z,11.17
2017-11-22T09:31:18.867Z,9.80
2017-11-22T09:33:57.989Z,10.70
2017-11-22T09:36:31.948Z,12.20
2017-11-22T09:39:05.648Z,12.80
2017-11-22T09:41:38.341Z,11.10
2017-11-22T09:44:11.564Z,11.20
2017-11-22T09:46:43.967Z,11.20
2017-11-22T09:49:16.529Z,11.37
2017-11-22T09:51:49.755Z,11.10
2017-11-22T09:54:23.324Z,11.97
2017-11-22T09:56:56.515Z,9.70
2017-11-22T09:59:29.202Z,10.30
2017-11-22T10:02:01.905Z,10.57
2017-11-22T10:04:35.662Z,10.70
2017-11-22T10:07:09.062Z,9.63
2017-11-22T10:09:41.610Z,9.37
2017-11-22T10:12:14.760Z,9.30
2017-11-22T10:14:47.572Z,9.90
2017-11-22T10:17:27.815Z,9.27
2017-11-22T10:20:03.796Z,9.97
2017-11-22T10:22:42.524Z,9.83
2017-11-22T10:25:19.560Z,9.77
2017-11-22T10:28:08.245Z,8.60
2017-11-22T10:30:42.060Z,9.70
2017-11-22T10:33:15.674Z,9.40
2017-11-22T10:35:48.356Z,8.87
2017-11-22T10:38:21.057Z,8.60
2017-11-22T10:40:53.789Z,8.85
2017-11-22T10:43:26.539Z,9.20
2017-11-22T10:45:59.787Z,8.93
2017-11-22T10:48:32.303Z,9.00
2017-11-22T10:51:05.525Z,9.07
2017-11-22T10:53:39.065Z,8.27
2017-11-22T10:56:11.692Z,8.73
2017-11-22T10:58:44.261Z,9.17
2017-11-22T11:01:16.892Z,8.97
2017-11-22T11:03:50.967Z,9.30
2017-11-22T11:06:23.714Z,7.80
2017-11-22T11:08:56.802Z,7.87
2017-11-22T11:11:30.410Z,8.27
2017-11-22T11:14:03.184Z,7.77
2017-11-22T11:16:37.156Z,8.17
2017-11-22T11:19:09.779Z,8.23
2017-11-22T11:21:42.576Z,7.10
2017-11-22T11:24:15.073Z,7.00
2017-11-22T11:26:47.576Z,6.67
2017-11-22T11:29:20.015Z,7.03
2017-11-22T11:31:52.607Z,7.23
2017-11-22T11:34:25.231Z,7.80
2017-11-22T11:36:57.666Z,7.67
2017-11-22T11:39:30.908Z,7.33
2017-11-22T11:42:03.368Z,7.63
2017-11-22T11:44:35.944Z,7.20
2017-11-22T11:47:08.368Z,7.70
2017-11-22T11:49:40.820Z,9.47
2017-11-22T11:52:13.456Z,8.20
2017-11-22T11:54:46.816Z,7.77
2017-11-22T11:57:20.893Z,6.90
2017-11-22T11:59:54.488Z,8.47
2017-11-22T12:02:27.336Z,7.40
2017-11-22T12:05:00.602Z,8.53
2017-11-22T12:07:33.804Z,6.87
2017-11-22T12:10:06.745Z,7.53
2017-11-22T12:12:39.204Z,7.30
2017-11-22T12:15:12.101Z,6.73
2017-11-22T12:17:46.216Z,7.93
2017-11-22T12:20:19.232Z,8.10
2017-11-22T12:22:56.441Z,7.30
2017-11-22T12:25:29.319Z,7.97
2017-11-22T12:28:02.039Z,7.27
2017-11-22T12:30:34.427Z,7.67
2017-11-22T12:33:08.263Z,7.00
2017-11-22T12:35:41.834Z,6.50
2017-11-22T12:38:14.588Z,8.37
2017-11-22T12:40:47.279Z,7.80
2017-11-22T12:43:21.294Z,6.10
2017-11-22T12:45:55.051Z,7.17
2017-11-22T12:48:27.647Z,5.97
2017-11-22T12:51:00.096Z,7.27
2017-11-22T12:53:34.109Z,5.87
2017-11-22T12:56:06.844Z,6.73
2017-11-22T12:58:39.912Z,7.00
2017-11-22T13:01:12.357Z,7.73
2017-11-22T13:03:46.395Z,7.00
2017-11-22T13:06:19.188Z,6.63
2017-11-22T13:08:53.286Z,6.83
2017-11-22T13:11:32.183Z,6.57
2017-11-22T13:14:07.624Z,5.90
2017-11-22T13:16:41.651Z,5.80
2017-11-22T13:19:14.592Z,5.47
2017-11-22T13:21:46.961Z,8.60
2017-11-22T13:24:21.003Z,8.33
2017-11-22T13:26:53.835Z,6.30
2017-11-22T13:29:26.995Z,6.53
2017-11-22T13:32:00.569Z,6.30
2017-11-22T13:34:33.614Z,6.87
2017-11-22T13:37:06.495Z,7.33
2017-11-22T13:39:39.764Z,5.73
2017-11-22T13:42:13.339Z,6.60
2017-11-22T13:44:45.896Z,6.07
2017-11-22T13:47:19.210Z,6.03
2017-11-22T13:49:52.339Z,5.83
2017-11-22T13:52:25.337Z,5.37
2017-11-22T13:54:58.688Z,5.30
2017-11-22T13:57:31.652Z,4.30
2017-11-22T14:00:04.089Z,4.40
2017-11-22T14:02:36.712Z,5.50
2017-11-22T14:05:09.981Z,4.20
2017-11-22T14:07:43.236Z,4.30
2017-11-22T14:10:15.948Z,3.93
2017-11-22T14:12:49.574Z,4.87
2017-11-22T14:15:22.814Z,4.00
2017-11-22T14:17:55.661Z,4.13
2017-11-22T14:20:28.482Z,4.43
2017-11-22T14:23:01.070Z,4.60
2017-11-22T14:25:33.553Z,5.03
2017-11-22T14:28:06.204Z,5.60
2017-11-22T14:30:38.620Z,4.53
2017-11-22T14:33:11.872Z,5.27
2017-11-22T14:35:44.721Z,4.20
2017-11-22T14:38:17.699Z,4.30
2017-11-22T14:40:50.212Z,3.67
2017-11-22T14:43:22.718Z,4.00
2017-11-22T14:45:55.297Z,4.33
2017-11-22T14:48:27.788Z,3.80
2017-11-22T14:51:00.924Z,3.60
2017-11-22T14:53:33.763Z,3.93
2017-11-22T14:56:06.632Z,3.83
2017-11-22T14:58:40.634Z,4.03
2017-11-22T15:01:13.473Z,4.07
2017-11-22T15:03:46.700Z,4.97
2017-11-22T15:06:19.701Z,6.20
2017-11-22T15:08:52.319Z,6.27
2017-11-22T15:11:25.521Z,6.30
2017-11-22T15:13:58.876Z,5.97
2017-11-22T15:16:31.626Z,6.60
2017-11-22T15:19:03.997Z,5.73
2017-11-22T15:21:36.477Z,4.37
2017-11-22T15:24:09.427Z,4.13
2017-11-22T15:26:42.304Z,4.83
2017-11-22T15:29:15.034Z,4.07
2017-11-22T15:31:48.235Z,4.37
2017-11-22T15:34:20.860Z,5.70
2017-11-22T15:36:54.698Z,5.93
2017-11-22T15:39:28.064Z,8.23
2017-11-22T15:42:01.189Z,8.67
2017-11-22T15:44:33.522Z,9.90
2017-11-22T15:47:06.798Z,8.23
2017-11-22T15:49:39.719Z,6.77
2017-11-22T15:52:12.563Z,5.70
2017-11-22T15:54:46.587Z,9.27
2017-11-22T15:57:19.492Z,15.20
2017-11-22T15:59:51.961Z,12.60
2017-11-22T16:02:24.626Z,13.53
2017-11-22T16:04:56.956Z,15.70
2017-11-22T16:07:30.236Z,11.70
2017-11-22T16:10:03.386Z,11.60
2017-11-22T16:12:37.028Z,10.90
2017-11-22T16:15:09.700Z,13.57
2017-11-22T16:17:42.200Z,24.80
2017-11-22T16:20:14.878Z,14.07
2017-11-22T16:22:47.682Z,15.03
2017-11-22T16:25:21.239Z,15.77
2017-11-22T16:27:54.781Z,15.70
2017-11-22T16:30:27.437Z,27.30
2017-11-22T16:33:00.120Z,21.33
2017-11-22T16:35:33.347Z,14.67
2017-11-22T16:38:06.764Z,15.17
2017-11-22T16:40:39.328Z,13.93
2017-11-22T16:43:11.781Z,11.33
2017-11-22T16:45:45.811Z,11.13
2017-11-22T16:48:18.528Z,10.00
2017-11-22T16:50:51.845Z,11.73
2017-11-22T16:53:25.263Z,10.77
2017-11-22T16:55:59.042Z,9.07
2017-11-22T16:58:31.920Z,9.23
2017-11-22T17:01:04.348Z,9.57
2017-11-22T17:03:37.723Z,8.13
2017-11-22T17:06:11.080Z,8.67
2017-11-22T17:08:43.475Z,9.00
2017-11-22T17:11:15.996Z,9.17
2017-11-22T17:13:48.660Z,10.20
2017-11-22T17:16:21.160Z,10.27
2017-11-22T17:18:54.379Z,9.27
2017-11-22T17:21:27.772Z,9.13
2017-11-22T17:24:00.881Z,7.90
2017-11-22T17:26:35.779Z,7.00
2017-11-22T17:29:13.299Z,7.20
2017-11-22T17:31:50.167Z,6.20
2017-11-22T17:34:26.653Z,6.73
2017-11-22T17:36:59.276Z,7.43
2017-11-22T17:39:32.160Z,7.50
2017-11-22T17:42:05.344Z,7.70
2017-11-22T17:44:38.704Z,7.90
2017-11-22T17:47:12.505Z,6.57
2017-11-22T17:49:45.819Z,6.17
2017-11-22T17:52:19.163Z,7.77
2017-11-22T17:54:52.261Z,7.43
2017-11-22T17:57:25.600Z,7.80
2017-11-22T17:59:59.010Z,7.90
2017-11-22T18:02:32.364Z,9.37
2017-11-22T18:05:05.932Z,9.20
2017-11-22T18:07:38.640Z,9.10
2017-11-22T18:10:11.137Z,8.43
2017-11-22T18:12:44.387Z,10.40
2017-11-22T18:15:18.010Z,8.87
2017-11-22T18:17:50.813Z,9.57
2017-11-22T18:20:23.500Z,10.33
2017-11-22T18:22:55.961Z,10.57
2017-11-22T18:25:29.168Z,10.77
2017-11-22T18:28:01.581Z,11.90
2017-11-22T18:30:34.540Z,13.93
2017-11-22T18:33:07.046Z,14.70
2017-11-22T18:35:40.969Z,14.90
2017-11-22T18:38:14.858Z,13.73
2017-11-22T18:40:53.134Z,15.73
2017-11-22T18:43:28.850Z,16.30
2017-11-22T18:46:03.007Z,15.37
2017-11-22T18:48:36.656Z,16.57
2017-11-22T18:51:10.267Z,17.47
2017-11-22T18:53:44.441Z,19.43
2017-11-22T18:56:18.432Z,21.83
2017-11-22T18:58:51.624Z,19.43
2017-11-22T19:01:25.626Z,19.30
2017-11-22T19:04:00.215Z,18.57
2017-11-22T19:06:33.859Z,17.17
2017-11-22T19:09:06.809Z,15.87
2017-11-22T19:11:39.318Z,13.67
2017-11-22T19:14:11.821Z,14.20
2017-11-22T19:16:44.335Z,11.87
2017-11-22T19:19:17.554Z,12.00
2017-11-22T19:21:50.320Z,10.20
2017-11-22T19:24:22.613Z,10.57
2017-11-22T19:26:55.367Z,10.10
2017-11-22T19:29:28.586Z,11.10
2017-11-22T19:32:01.296Z,10.73
2017-11-22T19:34:33.736Z,11.97
2017-11-22T19:37:07.477Z,10.40
2017-11-22T19:39:40.856Z,10.70
2017-11-22T19:42:13.589Z,12.23
2017-11-22T19:44:46.039Z,13.13
2017-11-22T19:47:19.259Z,15.90
2017-11-22T19:49:52.359Z,14.43
2017-11-22T19:52:25.493Z,15.60
2017-11-22T19:54:58.803Z,25.93
2017-11-22T19:57:31.950Z,34.40
2017-11-22T20:00:04.454Z,26.87
2017-11-22T20:02:37.368Z,24.40
2017-11-22T20:05:10.863Z,20.53
2017-11-22T20:07:47.226Z,19.03
2017-11-22T20:10:20.648Z,12.10
2017-11-22T20:12:54.205Z,10.67
2017-11-22T20:15:26.912Z,7.40
2017-11-22T20:17:59.881Z,5.73
2017-11-22T20:20:32.459Z,6.33
2017-11-22T20:23:06.505Z,7.03
2017-11-22T20:25:39.217Z,9.07
2017-11-22T20:28:12.944Z,9.43
2017-11-22T20:30:46.422Z,9.73
2017-11-22T20:33:19.507Z,9.90
2017-11-22T20:35:52.792Z,12.67
2017-11-22T20:38:25.996Z,16.43
2017-11-22T20:40:58.339Z,15.33
2017-11-22T20:43:31.741Z,15.10
2017-11-22T20:46:05.156Z,17.57
2017-11-22T20:48:37.736Z,19.03
2017-11-22T20:51:10.357Z,15.37
2017-11-22T20:53:42.884Z,10.50
2017-11-22T20:56:16.109Z,9.53
2017-11-22T20:58:48.948Z,9.07
2017-11-22T21:01:22.115Z,10.50
2017-11-22T21:03:54.931Z,13.17
2017-11-22T21:06:28.721Z,21.73
2017-11-22T21:09:01.337Z,27.83
2017-11-22T21:11:34.523Z,27.80
2017-11-22T21:14:07.400Z,27.63
2017-11-22T21:16:40.111Z,20.73
2017-11-22T21:19:12.565Z,18.40
2017-11-22T21:21:46.616Z,15.47
2017-11-22T21:24:19.631Z,20.07
2017-11-22T21:26:52.005Z,19.07
2017-11-22T21:29:26.146Z,14.07
2017-11-22T21:31:58.822Z,11.70
2017-11-22T21:34:31.208Z,29.67
2017-11-22T21:37:04.477Z,16.97
2017-11-22T21:39:38.068Z,15.03
2017-11-22T21:42:11.003Z,13.80
2017-11-22T21:44:43.479Z,14.43
2017-11-22T21:47:15.935Z,15.00
2017-11-22T21:49:48.593Z,13.20
2017-11-22T21:52:21.980Z,13.97
2017-11-22T21:54:55.155Z,13.77
2017-11-22T21:57:33.209Z,11.57
2017-11-22T22:00:06.216Z,13.13
2017-11-22T22:02:38.570Z,14.63
2017-11-22T22:05:11.926Z,23.43
2017-11-22T22:07:44.622Z,20.53
2017-11-22T22:10:17.301Z,20.13
2017-11-22T22:12:49.727Z,20.00
2017-11-22T22:15:22.519Z,16.93
2017-11-22T22:17:55.654Z,14.57
2017-11-22T22:20:28.419Z,12.13
2017-11-22T22:23:00.813Z,9.13
2017-11-22T22:25:33.279Z,13.03
2017-11-22T22:28:06.441Z,9.80
2017-11-22T22:30:39.429Z,9.37
2017-11-22T22:33:13.379Z,8.97
2017-11-22T22:35:46.792Z,9.63
2017-11-22T22:38:20.367Z,10.93
2017-11-22T22:40:53.155Z,11.00
2017-11-22T22:43:25.616Z,10.73
2017-11-22T22:45:58.775Z,8.63
2017-11-22T22:48:31.529Z,9.80
2017-11-22T22:51:04.030Z,12.47
2017-11-22T22:53:38.107Z,12.50
2017-11-22T22:56:10.718Z,10.60
2017-11-22T22:58:43.397Z,7.87
2017-11-22T23:01:16.073Z,10.10
2017-11-22T23:03:49.441Z,8.00
2017-11-22T23:06:22.980Z,8.10
2017-11-22T23:08:55.723Z,7.97
2017-11-22T23:11:28.272Z,8.73
2017-11-22T23:14:01.109Z,9.37
2017-11-22T23:16:33.909Z,12.17
2017-11-22T23:19:06.968Z,17.63
2017-11-22T23:21:40.435Z,15.13
2017-11-22T23:24:13.957Z,15.37
2017-11-22T23:26:46.716Z,17.67
2017-11-22T23:29:19.220Z,14.17
2017-11-22T23:31:52.760Z,13.50
2017-11-22T23:34:25.883Z,11.70
2017-11-22T23:36:58.441Z,10.90
2017-11-22T23:39:32.244Z,10.90
2017-11-22T23:42:04.951Z,10.90
2017-11-22T23:44:37.372Z,9.83
2017-11-22T23:47:10.739Z,8.77
2017-11-22T23:49:43.243Z,5.93
2017-11-22T23:52:16.607Z,6.37
2017-11-22T23:54:49.442Z,6.40
2017-11-22T23:57:22.747Z,6.20
2017-11-22T23:59:55.123Z,6.10
